Time;durP1;ratioP1;P1;durP2;ratioP2;P2;SDS_P1;SDS_P2;PMS_P1;PMS_P2;Temp;Humidity;BMP_temperature;BMP_pressure;BME280_temperature;BME280_humidity;BME280_pressure;Samples;Min_cycle;Max_cycle;Signal;HPM_P1;HPM_P2
2022/06/30 00:01:44;;;;;;;11.03;9.90;;;18.50;99.90;;;;;;5050354;28;20452;-67
2022/06/30 00:04:10;;;;;;;11.87;10.70;;;18.50;99.90;;;;;;5050458;28;21041;-67
2022/06/30 00:06:37;;;;;;;12.17;10.90;;;18.50;99.90;;;;;;5050847;28;20934;-67
2022/06/30 00:09:04;;;;;;;12.60;11.40;;;18.50;99.90;;;;;;5050731;28;20535;-66
2022/06/30 00:11:32;;;;;;;12.37;10.20;;;18.40;99.90;;;;;;5050658;28;20448;-66
2022/06/30 00:13:59;;;;;;;11.90;10.83;;;18.40;99.90;;;;;;5050868;28;21077;-67
2022/06/30 00:16:26;;;;;;;14.73;11.03;;;18.40;99.90;;;;;;5051218;28;20603;-66
2022/06/30 00:18:53;;;;;;;11.33;10.33;;;18.40;99.90;;;;;;5050769;28;20459;-66
2022/06/30 00:21:20;;;;;;;12.57;11.67;;;18.40;99.90;;;;;;5050690;28;20458;-66
2022/06/30 00:23:47;;;;;;;11.83;10.67;;;18.40;99.90;;;;;;5050824;28;20580;-66
2022/06/30 00:26:13;;;;;;;12.47;11.23;;;18.40;99.90;;;;;;5050782;28;20448;-66
2022/06/30 00:28:41;;;;;;;12.00;10.73;;;18.40;99.90;;;;;;5050394;28;20459;-66
2022/06/30 00:31:08;;;;;;;12.57;11.37;;;18.30;99.90;;;;;;5050204;28;20829;-65
2022/06/30 00:33:35;;;;;;;12.50;11.40;;;18.20;99.90;;;;;;5050150;28;20468;-66
2022/06/30 00:36:02;;;;;;;12.33;11.23;;;18.30;99.90;;;;;;5050387;28;20458;-66
2022/06/30 00:38:29;;;;;;;11.77;10.87;;;18.20;99.90;;;;;;5050259;28;20448;-66
2022/06/30 00:40:55;;;;;;;12.53;11.07;;;18.10;99.90;;;;;;5049904;28;20440;-67
2022/06/30 00:43:22;;;;;;;12.10;11.10;;;18.10;99.90;;;;;;5049730;28;20490;-66
2022/06/30 00:45:50;;;;;;;12.20;11.20;;;18.10;99.90;;;;;;5050238;28;20450;-66
2022/06/30 00:48:19;;;;;;;12.97;11.70;;;18.10;99.90;;;;;;5050262;28;20467;-67
2022/06/30 00:50:46;;;;;;;12.67;11.60;;;18.00;99.90;;;;;;5049891;28;20470;-66
2022/06/30 00:53:13;;;;;;;12.70;11.40;;;17.80;99.90;;;;;;5049980;28;20467;-67
2022/06/30 00:55:40;;;;;;;13.53;12.33;;;17.90;99.90;;;;;;5050034;28;20463;-66
2022/06/30 00:58:09;;;;;;;13.20;11.30;;;17.80;99.90;;;;;;5049853;28;20441;-66
2022/06/30 01:00:37;;;;;;;13.10;12.00;;;17.90;99.90;;;;;;5049329;28;20444;-66
2022/06/30 01:03:07;;;;;;;14.67;13.47;;;17.90;99.90;;;;;;5049600;28;20476;-66
2022/06/30 01:05:34;;;;;;;14.73;13.37;;;17.80;99.90;;;;;;5049740;28;20964;-67
2022/06/30 01:08:03;;;;;;;18.90;13.20;;;17.70;99.90;;;;;;5049724;28;20451;-66
2022/06/30 01:13:14;;;;;;;15.17;13.40;;;17.70;99.90;;;;;;5049703;28;20431;-67
2022/06/30 01:15:41;;;;;;;15.00;13.50;;;17.80;99.90;;;;;;5049769;28;20456;-66
2022/06/30 01:18:09;;;;;;;13.60;12.50;;;17.80;99.90;;;;;;5049806;28;20815;-66
2022/06/30 01:20:36;;;;;;;14.60;13.30;;;17.80;99.90;;;;;;5049115;28;20566;-66
2022/06/30 01:23:05;;;;;;;14.70;13.20;;;17.70;99.90;;;;;;5049727;28;20488;-67
2022/06/30 01:25:33;;;;;;;15.30;13.87;;;17.70;99.90;;;;;;5049624;28;20463;-66
2022/06/30 01:28:00;;;;;;;13.83;12.63;;;17.60;99.90;;;;;;5049527;28;20845;-66
2022/06/30 01:30:27;;;;;;;15.50;14.00;;;17.60;99.90;;;;;;5049400;28;20451;-67
2022/06/30 01:32:54;;;;;;;15.43;13.93;;;17.70;99.90;;;;;;5049479;28;20474;-66
2022/06/30 01:35:21;;;;;;;14.87;13.60;;;17.70;99.90;;;;;;5049594;28;20447;-66
2022/06/30 01:37:51;;;;;;;13.23;12.03;;;17.70;99.90;;;;;;5049501;28;20448;-66
2022/06/30 01:40:20;;;;;;;15.23;13.77;;;17.70;99.90;;;;;;5049613;28;20448;-66
2022/06/30 01:42:47;;;;;;;13.63;12.43;;;17.60;99.90;;;;;;5049748;28;20464;-66
2022/06/30 01:45:14;;;;;;;14.97;13.67;;;17.70;99.90;;;;;;5049649;28;21187;-67
2022/06/30 01:47:41;;;;;;;15.10;13.60;;;17.60;99.90;;;;;;5049618;28;20969;-67
2022/06/30 01:50:12;;;;;;;15.10;13.70;;;17.70;99.90;;;;;;5049510;28;20447;-66
2022/06/30 01:52:39;;;;;;;15.27;13.97;;;17.50;99.90;;;;;;5049761;28;20549;-66
2022/06/30 01:55:07;;;;;;;14.80;13.40;;;17.40;99.90;;;;;;5049764;28;20456;-66
2022/06/30 01:57:36;;;;;;;15.00;13.60;;;17.30;99.90;;;;;;5049622;28;20498;-66
2022/06/30 02:00:05;;;;;;;14.93;13.53;;;17.20;99.90;;;;;;5049310;28;20455;-66
2022/06/30 02:02:31;;;;;;;15.37;13.77;;;17.30;99.90;;;;;;5049328;28;20807;-66
2022/06/30 02:04:58;;;;;;;14.43;13.00;;;17.20;99.90;;;;;;5049248;28;20475;-66
2022/06/30 02:07:25;;;;;;;15.47;13.90;;;17.20;99.90;;;;;;5049414;28;20459;-66
2022/06/30 02:09:52;;;;;;;15.93;13.57;;;17.20;99.90;;;;;;5048859;28;20539;-66
2022/06/30 02:15:06;;;;;;;14.43;13.13;;;17.20;99.90;;;;;;5049200;28;20420;-66
2022/06/30 02:17:33;;;;;;;14.47;13.23;;;17.10;99.90;;;;;;5048970;28;20518;-67
2022/06/30 02:20:00;;;;;;;14.57;13.37;;;17.10;99.90;;;;;;5048734;28;20974;-66
2022/06/30 02:22:27;;;;;;;16.70;15.00;;;17.10;99.90;;;;;;5049102;28;20463;-65
2022/06/30 02:24:54;;;;;;;16.17;14.70;;;17.20;99.90;;;;;;5048862;28;20844;-66
2022/06/30 02:27:24;;;;;;;23.10;14.90;;;17.20;99.90;;;;;;5049060;28;20546;-67
2022/06/30 02:29:52;;;;;;;16.30;13.87;;;17.20;99.90;;;;;;5048832;28;20454;-67
2022/06/30 02:32:21;;;;;;;14.27;13.07;;;17.20;99.90;;;;;;5050741;28;20502;-66
2022/06/30 02:34:48;;;;;;;14.17;12.97;;;17.20;99.90;;;;;;5052392;28;20442;-66
2022/06/30 02:37:15;;;;;;;14.87;13.57;;;17.20;99.90;;;;;;5052167;28;20947;-66
2022/06/30 02:39:42;;;;;;;14.53;13.23;;;17.10;99.90;;;;;;5052269;28;20458;-64
2022/06/30 02:42:09;;;;;;;13.97;12.60;;;17.10;99.90;;;;;;5050583;28;20452;-66
2022/06/30 02:44:36;;;;;;;15.70;14.10;;;17.10;99.90;;;;;;5051980;28;20483;-67
2022/06/30 02:47:03;;;;;;;17.40;14.10;;;17.10;99.90;;;;;;5052513;28;20444;-66
2022/06/30 02:49:31;;;;;;;14.03;12.70;;;17.10;99.90;;;;;;5052524;28;20459;-66
2022/06/30 02:51:58;;;;;;;15.77;14.13;;;17.00;99.90;;;;;;5052058;28;20444;-66
2022/06/30 02:54:25;;;;;;;17.73;16.00;;;17.00;99.90;;;;;;5051978;28;20848;-66
2022/06/30 02:56:52;;;;;;;18.00;16.30;;;17.00;99.90;;;;;;5052380;28;20452;-66
2022/06/30 02:59:19;;;;;;;17.40;15.80;;;17.00;99.90;;;;;;5051769;28;20953;-66
2022/06/30 03:01:45;;;;;;;17.90;15.77;;;17.00;99.90;;;;;;5051650;28;20448;-66
2022/06/30 03:04:12;;;;;;;18.33;16.43;;;17.00;99.90;;;;;;5051971;28;20480;-66
2022/06/30 03:06:40;;;;;;;17.37;15.87;;;17.00;99.90;;;;;;5052149;28;20449;-65
2022/06/30 03:09:08;;;;;;;18.43;16.63;;;17.00;99.90;;;;;;5051678;28;20495;-66
2022/06/30 03:11:35;;;;;;;17.70;16.10;;;16.90;99.90;;;;;;5051755;28;20497;-67
2022/06/30 03:14:02;;;;;;;18.97;17.20;;;16.90;99.90;;;;;;5051579;28;20470;-66
2022/06/30 03:16:28;;;;;;;18.80;16.83;;;17.00;99.90;;;;;;5051786;28;20450;-67
2022/06/30 03:18:55;;;;;;;18.43;16.70;;;16.90;99.90;;;;;;5051743;28;20456;-66
2022/06/30 03:21:22;;;;;;;18.57;16.87;;;16.80;99.90;;;;;;5051453;28;20440;-66
2022/06/30 03:23:50;;;;;;;17.23;15.53;;;16.80;99.90;;;;;;5051311;28;20483;-66
2022/06/30 03:26:17;;;;;;;16.10;14.67;;;16.80;99.90;;;;;;5051769;28;20474;-66
2022/06/30 03:28:44;;;;;;;15.40;14.10;;;16.80;99.90;;;;;;5051298;28;20829;-66
2022/06/30 03:31:11;;;;;;;17.50;15.90;;;16.70;99.90;;;;;;5050988;28;20444;-66
2022/06/30 03:33:38;;;;;;;17.60;16.00;;;16.80;99.90;;;;;;5051405;28;20539;-66
2022/06/30 03:36:05;;;;;;;16.70;14.90;;;16.70;99.90;;;;;;5051334;28;20460;-66
2022/06/30 03:38:32;;;;;;;16.17;14.67;;;16.80;99.90;;;;;;5051542;28;20444;-66
2022/06/30 03:41:00;;;;;;;16.43;14.97;;;16.80;99.90;;;;;;5051077;28;20448;-66
2022/06/30 03:43:27;;;;;;;16.20;14.70;;;16.70;99.90;;;;;;5050765;28;20985;-66
2022/06/30 03:45:54;;;;;;;19.17;17.37;;;16.80;99.90;;;;;;5051404;28;20996;-66
2022/06/30 03:48:20;;;;;;;20.67;18.00;;;16.70;99.90;;;;;;5051155;28;20448;-66
2022/06/30 03:50:47;;;;;;;17.07;15.40;;;16.70;99.90;;;;;;5050676;28;20960;-66
2022/06/30 03:53:14;;;;;;;18.80;16.80;;;16.70;99.90;;;;;;5051127;28;20479;-66
2022/06/30 03:55:41;;;;;;;18.70;17.00;;;16.80;99.90;;;;;;5050974;28;20440;-66
2022/06/30 03:58:10;;;;;;;19.50;16.70;;;16.80;99.90;;;;;;5051056;28;20451;-66
2022/06/30 04:00:37;;;;;;;18.30;16.50;;;16.80;99.90;;;;;;5050657;28;20534;-66
2022/06/30 04:03:04;;;;;;;21.70;16.30;;;16.80;99.90;;;;;;5050831;28;20470;-67
2022/06/30 04:05:31;;;;;;;17.20;15.60;;;16.90;99.90;;;;;;5051027;28;21063;-67
2022/06/30 04:07:58;;;;;;;17.17;15.67;;;17.00;99.90;;;;;;5050873;28;20466;-66
2022/06/30 04:10:24;;;;;;;17.30;15.50;;;17.00;99.90;;;;;;5050454;28;20463;-66
2022/06/30 04:12:51;;;;;;;17.80;16.30;;;17.10;99.90;;;;;;5050584;28;20474;-66
2022/06/30 04:15:19;;;;;;;16.90;15.13;;;17.00;99.90;;;;;;5050511;28;20452;-66
2022/06/30 04:17:46;;;;;;;16.50;15.00;;;17.10;99.90;;;;;;5050437;28;20448;-66
2022/06/30 04:20:16;;;;;;;15.47;14.20;;;17.10;99.90;;;;;;5050587;28;20821;-66
2022/06/30 04:22:44;;;;;;;17.67;15.97;;;17.20;99.90;;;;;;5050535;28;20467;-66
2022/06/30 04:25:11;;;;;;;16.77;15.20;;;17.30;99.90;;;;;;5050536;28;20484;-66
2022/06/30 04:27:42;;;;;;;15.70;14.40;;;17.40;99.90;;;;;;5050273;28;20459;-66
2022/06/30 04:30:10;;;;;;;15.20;13.97;;;17.40;99.90;;;;;;5050095;28;20444;-66
2022/06/30 04:32:37;;;;;;;15.67;14.07;;;17.50;99.90;;;;;;5050149;28;20478;-66
2022/06/30 04:35:06;;;;;;;15.23;13.77;;;17.50;99.90;;;;;;5050448;28;20493;-65
2022/06/30 04:37:32;;;;;;;15.93;14.43;;;17.60;99.90;;;;;;5050209;28;20823;-66
2022/06/30 04:42:43;;;;;;;15.27;13.60;;;17.60;99.90;;;;;;5047842;28;20471;-65
2022/06/30 04:45:10;;;;;;;14.60;13.17;;;17.70;99.90;;;;;;5047861;28;20869;-65
2022/06/30 04:47:39;;;;;;;16.60;15.13;;;17.80;99.90;;;;;;5050997;28;20519;-67
2022/06/30 04:50:07;;;;;;;16.67;15.23;;;17.80;99.90;;;;;;5049938;28;20846;-66
2022/06/30 04:52:34;;;;;;;18.40;16.70;;;17.90;99.90;;;;;;5040516;28;20479;-66
2022/06/30 04:55:01;;;;;;;18.23;16.63;;;17.90;99.90;;;;;;5046020;28;20985;-64
2022/06/30 04:57:28;;;;;;;17.07;15.40;;;18.00;99.90;;;;;;5047807;28;20860;-65
2022/06/30 04:59:55;;;;;;;16.87;15.47;;;18.10;99.90;;;;;;5049692;28;20455;-65
2022/06/30 05:02:22;;;;;;;16.17;14.70;;;18.20;99.90;;;;;;5049579;28;20455;-66
2022/06/30 05:04:50;;;;;;;15.33;13.83;;;18.30;99.90;;;;;;5049682;28;20475;-67
2022/06/30 05:07:17;;;;;;;17.43;15.83;;;18.40;99.90;;;;;;5049755;28;20836;-67
2022/06/30 05:09:45;;;;;;;16.47;15.07;;;18.40;99.90;;;;;;5049384;28;20447;-67
2022/06/30 05:12:12;;;;;;;16.30;14.90;;;18.50;99.90;;;;;;5049702;28;20452;-65
2022/06/30 05:14:39;;;;;;;20.90;15.27;;;18.50;99.90;;;;;;5049504;28;20905;-66
2022/06/30 05:17:06;;;;;;;16.00;14.50;;;18.60;99.90;;;;;;5049762;28;20452;-66
2022/06/30 05:19:33;;;;;;;17.13;15.30;;;18.60;99.90;;;;;;5049944;28;20452;-65
2022/06/30 05:22:02;;;;;;;15.53;13.97;;;18.60;99.90;;;;;;5049362;28;20894;-66
2022/06/30 05:27:13;;;;;;;16.13;14.67;;;18.60;99.90;;;;;;5050027;28;20531;-67
2022/06/30 05:29:40;;;;;;;14.17;12.93;;;18.70;99.90;;;;;;5047585;28;20459;-67
2022/06/30 05:32:08;;;;;;;16.30;14.80;;;18.80;99.90;;;;;;5048408;28;20456;-67
2022/06/30 05:34:35;;;;;;;15.23;13.93;;;18.90;99.90;;;;;;5048818;28;20475;-67
2022/06/30 05:37:03;;;;;;;16.53;14.30;;;19.00;99.90;;;;;;5048707;28;20447;-66
2022/06/30 05:39:32;;;;;;;14.40;13.00;;;19.10;99.90;;;;;;5049131;28;20446;-67
2022/06/30 05:41:59;;;;;;;13.30;12.17;;;19.20;99.90;;;;;;5049254;28;20447;-67
2022/06/30 05:44:26;;;;;;;15.33;13.93;;;19.30;99.90;;;;;;5048269;28;20490;-66
2022/06/30 05:46:54;;;;;;;15.30;13.13;;;19.40;99.90;;;;;;5048944;28;20460;-67
2022/06/30 05:49:21;;;;;;;14.03;12.80;;;19.40;99.90;;;;;;5048735;28;20525;-67
2022/06/30 05:51:47;;;;;;;14.17;12.87;;;19.50;99.90;;;;;;5049002;28;20444;-67
2022/06/30 05:54:16;;;;;;;14.17;12.67;;;19.60;99.90;;;;;;5049544;28;20498;-65
2022/06/30 05:56:42;;;;;;;12.40;11.30;;;19.70;99.90;;;;;;5044249;28;20444;-66
2022/06/30 05:59:09;;;;;;;13.13;11.87;;;19.80;99.90;;;;;;5049508;28;20861;-66
2022/06/30 06:01:36;;;;;;;13.80;11.87;;;19.90;99.90;;;;;;5047816;28;20827;-66
2022/06/30 06:04:03;;;;;;;14.00;12.80;;;20.00;99.90;;;;;;5049233;28;20564;-65
2022/06/30 06:06:30;;;;;;;17.47;12.37;;;20.10;99.90;;;;;;5050378;28;21005;-66
2022/06/30 06:08:57;;;;;;;13.30;11.93;;;20.20;99.90;;;;;;5052890;28;20460;-66
2022/06/30 06:11:25;;;;;;;13.73;12.43;;;20.30;99.90;;;;;;5052692;28;20826;-66
2022/06/30 06:13:52;;;;;;;12.10;11.03;;;20.40;99.90;;;;;;5053205;28;20475;-66
2022/06/30 06:16:19;;;;;;;12.20;11.00;;;20.50;99.90;;;;;;5053216;28;20816;-65
2022/06/30 06:18:46;;;;;;;12.40;11.30;;;20.70;99.90;;;;;;5052885;28;21187;-66
2022/06/30 06:21:13;;;;;;;13.27;11.50;;;20.80;99.90;;;;;;5049721;28;20443;-67
2022/06/30 06:23:45;;;;;;;13.30;11.87;;;20.90;99.90;;;;;;5044740;28;20473;-66
2022/06/30 06:26:17;;;;;;;12.43;11.03;;;21.10;99.90;;;;;;5050011;28;20475;-66
2022/06/30 06:31:31;;;;;;;11.10;10.10;;;21.30;99.90;;;;;;5048128;28;20427;-67
2022/06/30 06:33:57;;;;;;;12.13;10.60;;;21.40;99.90;;;;;;5058481;28;21012;-67
2022/06/30 06:36:24;;;;;;;10.90;9.70;;;21.40;99.90;;;;;;5052733;28;20462;-68
2022/06/30 06:38:51;;;;;;;11.10;9.87;;;21.60;99.90;;;;;;5043831;28;20440;-68
2022/06/30 06:41:20;;;;;;;11.97;10.60;;;21.70;99.90;;;;;;5060659;28;20450;-67
2022/06/30 06:43:49;;;;;;;13.67;11.10;;;21.80;99.90;;;;;;5052094;28;20460;-68
2022/06/30 06:46:15;;;;;;;11.10;9.97;;;21.90;99.90;;;;;;5052450;28;20487;-69
2022/06/30 06:48:43;;;;;;;10.33;9.33;;;22.00;99.90;;;;;;5051669;28;21033;-68
2022/06/30 06:51:09;;;;;;;10.77;9.53;;;22.10;99.90;;;;;;5044963;28;20458;-67
2022/06/30 06:53:36;;;;;;;12.00;10.30;;;22.30;99.90;;;;;;5047266;28;20470;-68
2022/06/30 06:56:04;;;;;;;13.37;10.77;;;22.30;99.90;;;;;;5043504;28;20444;-67
2022/06/30 06:58:31;;;;;;;11.13;10.03;;;22.40;99.90;;;;;;5049157;28;20534;-68
2022/06/30 07:01:00;;;;;;;10.73;9.83;;;22.50;99.90;;;;;;5048764;28;20460;-68
2022/06/30 07:03:27;;;;;;;12.07;9.90;;;22.60;99.90;;;;;;5046454;28;20472;-67
2022/06/30 07:05:53;;;;;;;10.90;9.50;;;22.70;99.90;;;;;;5048805;28;20475;-67
2022/06/30 07:08:20;;;;;;;9.90;8.90;;;22.80;99.90;;;;;;5047098;28;20467;-68
2022/06/30 07:10:47;;;;;;;9.27;8.47;;;22.90;99.90;;;;;;5051088;28;20455;-67
2022/06/30 07:13:14;;;;;;;9.27;7.63;;;23.00;99.90;;;;;;5045441;28;20459;-69
2022/06/30 07:15:41;;;;;;;11.03;8.83;;;23.10;99.90;;;;;;5043912;28;20475;-67
2022/06/30 07:18:09;;;;;;;11.00;9.20;;;23.20;99.90;;;;;;5045512;28;20452;-67
2022/06/30 07:20:35;;;;;;;9.10;8.17;;;23.30;99.90;;;;;;5047379;28;20530;-68
2022/06/30 07:23:02;;;;;;;9.80;8.80;;;23.40;99.90;;;;;;5041405;28;20485;-69
2022/06/30 07:25:29;;;;;;;8.73;8.00;;;23.50;99.90;;;;;;5043222;28;20482;-67
2022/06/30 07:27:56;;;;;;;11.37;8.50;;;23.70;99.90;;;;;;5041465;28;20460;-69
2022/06/30 07:30:23;;;;;;;9.97;8.97;;;23.80;99.90;;;;;;5042557;28;20452;-68
2022/06/30 07:32:50;;;;;;;8.10;7.30;;;24.00;99.90;;;;;;5042270;28;20478;-68
2022/06/30 07:35:19;;;;;;;9.40;7.90;;;24.10;99.90;;;;;;5045009;28;20441;-68
2022/06/30 07:37:46;;;;;;;8.20;7.40;;;24.30;99.90;;;;;;5040530;28;20456;-67
2022/06/30 07:40:14;;;;;;;8.90;8.10;;;24.30;99.90;;;;;;5045087;28;20456;-68
2022/06/30 07:42:42;;;;;;;7.90;7.03;;;24.40;99.90;;;;;;5047710;28;20472;-69
2022/06/30 07:45:10;;;;;;;7.90;7.30;;;24.40;99.90;;;;;;5045374;28;20485;-69
2022/06/30 07:47:39;;;;;;;7.63;6.97;;;24.50;99.90;;;;;;5047553;28;20447;-69
2022/06/30 07:50:07;;;;;;;8.00;7.30;;;24.70;99.90;;;;;;5050923;28;20489;-68
2022/06/30 07:52:35;;;;;;;6.83;6.20;;;24.70;99.90;;;;;;5051109;28;20487;-66
2022/06/30 07:55:03;;;;;;;7.53;6.83;;;24.90;99.90;;;;;;5045664;28;20450;-68
2022/06/30 07:57:30;;;;;;;7.37;6.60;;;24.90;99.90;;;;;;5045794;28;20472;-68
2022/06/30 07:59:57;;;;;;;7.30;6.60;;;25.00;99.90;;;;;;5046654;28;20903;-66
2022/06/30 08:02:24;;;;;;;9.80;6.90;;;25.10;99.90;;;;;;5048984;28;20525;-68
2022/06/30 08:04:51;;;;;;;6.60;6.00;;;25.10;99.90;;;;;;5044530;28;20193;-66
2022/06/30 08:07:18;;;;;;;6.50;5.90;;;25.20;99.90;;;;;;5050463;28;20995;-68
2022/06/30 08:09:46;;;;;;;7.60;7.00;;;25.30;99.90;;;;;;5050599;28;20444;-68
2022/06/30 08:12:13;;;;;;;7.03;6.03;;;25.40;99.90;;;;;;5050493;28;20463;-68
2022/06/30 08:14:40;;;;;;;7.60;6.70;;;25.60;99.90;;;;;;5050725;28;20886;-68
2022/06/30 08:17:07;;;;;;;8.10;6.40;;;25.60;99.90;;;;;;5050649;28;20490;-68
2022/06/30 08:19:34;;;;;;;7.43;6.30;;;25.70;99.90;;;;;;5050266;28;20488;-69
2022/06/30 08:22:01;;;;;;;6.97;6.27;;;25.80;99.90;;;;;;5050191;28;20455;-68
2022/06/30 08:24:28;;;;;;;7.60;6.80;;;25.90;99.90;;;;;;5050227;28;20478;-68
2022/06/30 08:26:58;;;;;;;7.37;6.67;;;26.10;99.90;;;;;;5050529;28;20491;-68
2022/06/30 08:29:25;;;;;;;7.40;6.70;;;26.10;99.90;;;;;;5050095;28;20517;-68
2022/06/30 08:31:52;;;;;;;7.50;6.80;;;26.20;99.90;;;;;;5050019;28;20448;-68
2022/06/30 08:34:20;;;;;;;6.83;6.23;;;26.40;99.90;;;;;;5050235;28;20472;-68
2022/06/30 08:36:47;;;;;;;7.27;6.57;;;26.40;99.90;;;;;;5050354;28;20450;-68
2022/06/30 08:42:05;;;;;;;7.73;6.93;;;26.60;99.90;;;;;;5047684;28;20903;-68
2022/06/30 08:44:34;;;;;;;7.00;6.00;;;26.80;99.90;;;;;;5047989;28;20979;-68
2022/06/30 08:47:01;;;;;;;6.70;6.00;;;26.80;99.90;;;;;;5039179;28;20487;-68
2022/06/30 08:49:28;;;;;;;6.77;6.20;;;26.90;99.90;;;;;;5041322;28;20450;-67
2022/06/30 08:51:57;;;;;;;7.37;6.70;;;26.90;99.90;;;;;;5036729;28;20448;-68
2022/06/30 08:54:26;;;;;;;7.13;6.43;;;27.00;99.90;;;;;;5041078;28;20989;-68
2022/06/30 08:56:54;;;;;;;7.13;6.43;;;27.10;99.90;;;;;;5043153;28;20436;-68
2022/06/30 08:59:24;;;;;;;6.70;6.20;;;27.10;99.90;;;;;;5041555;28;20439;-68
2022/06/30 09:01:54;;;;;;;7.17;5.70;;;27.10;99.90;;;;;;5042625;28;20534;-68
2022/06/30 09:04:21;;;;;;;7.10;6.40;;;27.20;99.90;;;;;;5042981;28;20541;-67
2022/06/30 09:06:48;;;;;;;7.10;6.50;;;27.30;99.90;;;;;;5040415;28;20477;-68
2022/06/30 09:09:15;;;;;;;10.63;6.60;;;27.40;99.90;;;;;;5043428;28;20837;-69
2022/06/30 09:11:50;;;;;;;6.60;6.00;;;27.50;99.90;;;;;;5038554;28;20440;-69
2022/06/30 09:14:37;;;;;;;6.47;5.87;;;27.60;99.90;;;;;;5037939;28;20478;-67
2022/06/30 09:17:06;;;;;;;6.20;4.90;;;27.80;99.90;;;;;;5046727;28;20448;-67
2022/06/30 09:19:37;;;;;;;6.23;4.90;;;28.10;99.90;;;;;;5042407;28;20448;-68
2022/06/30 09:22:06;;;;;;;5.87;4.80;;;28.20;99.90;;;;;;5044225;28;20463;-68
2022/06/30 09:24:33;;;;;;;6.93;5.03;;;28.30;99.90;;;;;;5048964;28;20474;-67
2022/06/30 09:27:19;;;;;;;5.13;4.63;;;28.40;99.90;;;;;;5043159;28;21005;-68
2022/06/30 09:29:53;;;;;;;5.00;4.30;;;28.50;99.90;;;;;;5049129;28;20831;-67
2022/06/30 09:32:20;;;;;;;6.30;4.50;;;28.80;99.90;;;;;;5044056;28;21810;-68
2022/06/30 09:34:49;;;;;;;5.83;4.33;;;29.00;99.60;;;;;;5043589;28;20456;-67
2022/06/30 09:37:18;;;;;;;6.50;4.17;;;29.10;98.70;;;;;;5043475;28;20482;-68
2022/06/30 09:39:46;;;;;;;5.50;4.00;;;28.90;99.00;;;;;;5033623;28;20926;-68
2022/06/30 09:42:13;;;;;;;5.13;4.60;;;28.70;98.00;;;;;;5040076;28;20444;-68
2022/06/30 09:44:41;;;;;;;5.33;4.83;;;29.00;99.40;;;;;;5046729;28;20550;-68
2022/06/30 09:47:11;;;;;;;4.93;4.43;;;29.30;98.60;;;;;;5050617;28;20479;-68
2022/06/30 09:49:40;;;;;;;4.80;4.33;;;29.60;98.40;;;;;;5048025;28;20448;-68
2022/06/30 09:52:17;;;;;;;5.27;4.77;;;29.80;98.10;;;;;;5049637;28;20566;-67
2022/06/30 09:54:53;;;;;;;4.57;3.63;;;29.80;97.00;;;;;;5046256;28;20905;-68
2022/06/30 09:57:20;;;;;;;6.47;4.50;;;29.80;97.10;;;;;;5052566;28;20443;-69
2022/06/30 09:59:47;;;;;;;5.43;3.97;;;29.70;95.50;;;;;;5048199;28;20455;-67
2022/06/30 10:02:15;;;;;;;4.50;4.10;;;29.50;96.00;;;;;;5054402;28;20447;-68
2022/06/30 10:04:55;;;;;;;8.60;4.60;;;29.60;97.70;;;;;;5052230;28;20455;-69
2022/06/30 10:07:23;;;;;;;5.00;4.50;;;30.30;94.40;;;;;;5051939;28;20590;-67
2022/06/30 10:09:51;;;;;;;6.10;4.73;;;30.50;96.00;;;;;;5047320;28;20463;-69
2022/06/30 10:12:19;;;;;;;6.13;5.53;;;30.50;97.30;;;;;;5048565;28;20448;-67
2022/06/30 10:14:48;;;;;;;5.00;4.60;;;30.20;97.00;;;;;;5050969;28;20443;-68
2022/06/30 10:17:20;;;;;;;5.70;4.17;;;30.60;97.00;;;;;;5052494;28;21552;-68
2022/06/30 10:19:47;;;;;;;5.60;3.97;;;31.50;94.80;;;;;;5046099;28;20443;-68
2022/06/30 10:22:14;;;;;;;4.63;4.23;;;32.80;91.60;;;;;;5048810;28;20451;-67
2022/06/30 10:24:41;;;;;;;6.00;4.70;;;33.50;90.90;;;;;;5044373;28;20453;-68
2022/06/30 10:27:15;;;;;;;4.00;3.60;;;33.70;91.20;;;;;;5050851;28;20992;-67
2022/06/30 10:29:47;;;;;;;5.47;3.77;;;34.20;90.90;;;;;;5048628;28;20455;-67
2022/06/30 10:32:25;;;;;;;4.17;3.77;;;34.80;85.60;;;;;;5046531;28;20444;-68
2022/06/30 10:35:00;;;;;;;6.17;3.50;;;34.90;85.30;;;;;;5049122;28;20451;-67
2022/06/30 10:37:34;;;;;;;4.20;3.80;;;35.70;85.70;;;;;;5048740;28;20446;-68
2022/06/30 10:40:07;;;;;;;4.03;3.63;;;36.40;82.00;;;;;;5051490;28;21004;-68
2022/06/30 10:42:44;;;;;;;3.97;3.37;;;36.70;83.80;;;;;;5051945;28;20938;-67
2022/06/30 10:45:34;;;;;;;4.40;4.00;;;36.80;74.90;;;;;;5047007;28;20578;-69
2022/06/30 10:48:04;;;;;;;3.90;3.50;;;35.90;75.10;;;;;;5047576;28;20483;-66
2022/06/30 10:50:33;;;;;;;4.13;3.73;;;35.90;76.70;;;;;;5040724;28;20479;-67
2022/06/30 10:53:00;;;;;;;5.30;3.60;;;35.60;70.60;;;;;;5041592;28;20871;-68
2022/06/30 10:55:27;;;;;;;5.83;4.00;;;35.10;71.20;;;;;;5053663;28;20450;-68
2022/06/30 10:58:07;;;;;;;5.13;3.37;;;35.40;74.40;;;;;;5043379;28;20439;-68
2022/06/30 11:01:05;;;;;;;4.30;3.63;;;36.00;75.00;;;;;;5050117;28;20944;-68
2022/06/30 11:04:03;;;;;;;4.60;3.27;;;36.40;76.40;;;;;;5035490;28;20483;-69
2022/06/30 11:07:07;;;;;;;4.10;3.70;;;36.60;74.00;;;;;;5045263;28;20484;-69
2022/06/30 11:10:06;;;;;;;6.00;3.50;;;36.60;72.40;;;;;;5049019;28;20447;-68
2022/06/30 11:13:07;;;;;;;4.80;3.20;;;36.80;69.00;;;;;;5040026;28;20863;-69
2022/06/30 11:15:57;;;;;;;5.03;3.47;;;37.20;70.20;;;;;;5039223;28;20447;-66
2022/06/30 11:18:25;;;;;;;4.53;2.90;;;37.30;72.60;;;;;;5046420;28;20514;-66
2022/06/30 11:20:55;;;;;;;3.97;3.57;;;37.40;67.80;;;;;;5049839;28;20441;-67
2022/06/30 11:23:22;;;;;;;4.33;3.43;;;37.70;63.00;;;;;;5048123;28;20915;-68
2022/06/30 11:28:39;;;;;;;4.30;3.53;;;37.20;66.30;;;;;;5047552;28;20432;-67
2022/06/30 11:31:21;;;;;;;3.83;3.43;;;36.90;68.10;;;;;;5050941;28;20456;-68
2022/06/30 11:33:53;;;;;;;3.83;3.13;;;37.00;66.40;;;;;;5044818;28;20945;-68
2022/06/30 11:36:21;;;;;;;7.00;3.80;;;37.50;66.20;;;;;;5049991;28;20448;-68
2022/06/30 11:38:54;;;;;;;5.43;3.30;;;37.80;65.80;;;;;;5051425;28;20448;-67
2022/06/30 11:44:10;;;;;;;4.60;3.10;;;37.70;67.10;;;;;;5051051;28;20452;-67
2022/06/30 11:46:55;;;;;;;4.10;3.70;;;38.10;67.50;;;;;;5051178;28;20519;-67
2022/06/30 11:49:24;;;;;;;6.17;3.77;;;38.50;64.40;;;;;;5051340;28;20444;-68
2022/06/30 11:51:53;;;;;;;3.80;3.50;;;38.80;62.50;;;;;;5051356;28;20454;-67
2022/06/30 11:54:23;;;;;;;4.80;3.53;;;39.30;61.90;;;;;;5049522;28;21003;-67
2022/06/30 11:56:53;;;;;;;4.83;3.33;;;39.70;62.50;;;;;;5050894;28;20448;-68
2022/06/30 11:59:20;;;;;;;4.30;3.80;;;39.30;60.60;;;;;;5051197;28;20483;-68
2022/06/30 12:02:04;;;;;;;4.73;3.70;;;38.90;62.50;;;;;;5050571;28;20456;-67
2022/06/30 12:04:32;;;;;;;3.87;3.57;;;38.20;58.30;;;;;;5047348;28;21011;-67
2022/06/30 12:07:00;;;;;;;5.00;3.53;;;38.00;59.60;;;;;;5045881;28;20509;-67
2022/06/30 12:09:27;;;;;;;4.10;3.70;;;38.60;59.50;;;;;;5045090;28;20452;-68
2022/06/30 12:11:54;;;;;;;4.30;3.33;;;38.50;66.00;;;;;;5050204;28;20452;-68
2022/06/30 12:14:21;;;;;;;5.40;3.97;;;39.10;60.80;;;;;;5046053;28;20464;-68
2022/06/30 12:16:54;;;;;;;4.10;3.70;;;39.10;57.00;;;;;;5048957;28;20508;-67
2022/06/30 12:19:21;;;;;;;4.10;3.70;;;39.30;58.70;;;;;;5033387;28;20440;-67
2022/06/30 12:21:48;;;;;;;7.33;3.50;;;39.20;57.80;;;;;;5046663;28;20676;-68
2022/06/30 12:24:17;;;;;;;4.33;3.37;;;39.50;62.30;;;;;;5050747;28;20468;-67
2022/06/30 12:26:50;;;;;;;6.63;3.90;;;39.60;59.00;;;;;;5050697;28;20483;-67
2022/06/30 12:29:17;;;;;;;4.83;3.50;;;39.90;58.00;;;;;;5048352;28;20448;-68
2022/06/30 12:31:57;;;;;;;5.40;3.53;;;40.30;58.80;;;;;;5051755;28;20449;-68
2022/06/30 12:34:24;;;;;;;7.40;3.60;;;40.80;59.00;;;;;;5047150;28;20456;-67
2022/06/30 12:36:51;;;;;;;4.73;3.63;;;41.20;57.30;;;;;;5047444;28;20451;-68
2022/06/30 12:39:20;;;;;;;4.23;3.83;;;40.70;54.70;;;;;;5041048;28;20622;-67
2022/06/30 12:41:46;;;;;;;4.83;3.93;;;40.30;52.70;;;;;;5033431;28;20440;-67
2022/06/30 12:44:14;;;;;;;8.10;3.70;;;40.40;56.20;;;;;;5050130;28;21036;-68
2022/06/30 12:46:44;;;;;;;4.67;3.37;;;39.30;54.40;;;;;;5050392;28;20480;-66
2022/06/30 12:49:21;;;;;;;5.00;3.70;;;39.10;59.50;;;;;;5050163;28;20456;-67
2022/06/30 12:51:48;;;;;;;4.07;3.67;;;38.30;58.30;;;;;;5049076;28;20761;-67
2022/06/30 12:54:23;;;;;;;5.20;4.63;;;37.40;57.00;;;;;;5049997;28;20475;-67
2022/06/30 12:56:51;;;;;;;4.97;4.53;;;36.70;62.50;;;;;;5041553;28;20447;-69
2022/06/30 12:59:19;;;;;;;4.33;3.93;;;36.20;58.30;;;;;;5042051;28;20979;-68
2022/06/30 13:01:47;;;;;;;5.33;4.00;;;36.60;60.10;;;;;;5043078;28;20448;-67
2022/06/30 13:04:20;;;;;;;5.67;4.60;;;37.40;61.70;;;;;;5043458;28;20483;-69
2022/06/30 13:06:48;;;;;;;6.07;3.80;;;38.60;59.20;;;;;;5044163;28;20502;-66